Upper Saint Regis, New York
Current Conditions -  °F | °C
As of 7:51 AM on Friday 19 Dec 2014 (Local Time) from KSLK Reporting Station
Overcast Overcast  
Wind Chill:   Ceiling: 500
Heat Index: 18°   Visibility: 10mi
Dew Point: 16°   Wind: 7mph
Humidity: 92%   Direction: NA
Pressure: 29.95"   Gusts: NA
Location:  44.3663°N, 74.2493°W
Report Text: KSLK 191251Z AUTO VRB06KT 10SM OVC005 M08/M09 A2995 RMK AO2 SLP168 T10781089 $
Loading
Personal Weather Stations






























Interactive Weather Map New forecast layout! Learn more

10-Day Weather Forecast

Advertisements
Track Severe Weather on mobile